Time;durP1;ratioP1;P1;durP2;ratioP2;P2;SDS_P1;SDS_P2;PMS_P1;PMS_P2;Temp;Humidity;BMP_temperature;BMP_pressure;BME280_temperature;BME280_humidity;BME280_pressure;Samples;Min_cycle;Max_cycle;Signal;HPM_P1;HPM_P2
2022/05/30 00:00:18;;;;;;;4.40;1.92;;;;;;;8.87;81.47;100089.28;5024393;28;20113;-76
2022/05/30 00:02:43;;;;;;;3.80;2.03;;;;;;;8.81;81.31;100095.47;5024109;28;20049;-76
2022/05/30 00:05:10;;;;;;;3.90;2.20;;;;;;;8.75;82.05;100093.75;5025736;28;20078;-77
2022/05/30 00:07:36;;;;;;;3.50;1.80;;;;;;;8.69;81.86;100096.38;5022911;28;20447;-77
2022/05/30 00:10:03;;;;;;;3.45;1.70;;;;;;;8.69;82.05;100104.28;5026041;28;20033;-77
2022/05/30 00:12:28;;;;;;;2.97;1.40;;;;;;;8.67;81.73;100098.19;5023844;28;20040;-77
2022/05/30 00:14:54;;;;;;;5.15;1.70;;;;;;;8.64;81.80;100108.69;5024640;28;20041;-77
2022/05/30 00:17:19;;;;;;;4.25;1.73;;;;;;;8.60;82.62;100103.47;5023770;28;20084;-77
2022/05/30 00:19:44;;;;;;;5.13;1.98;;;;;;;8.59;82.79;100101.72;5022255;28;20037;-77
2022/05/30 00:22:13;;;;;;;6.97;2.13;;;;;;;8.62;82.22;100102.59;5025919;28;20045;-77
2022/05/30 00:24:38;;;;;;;4.57;1.73;;;;;;;8.67;81.92;100102.53;5023199;28;20042;-76
2022/05/30 00:27:04;;;;;;;4.88;1.92;;;;;;;8.68;81.50;100110.44;5024890;28;20034;-76
2022/05/30 00:29:30;;;;;;;3.90;1.92;;;;;;;8.68;80.93;100105.19;5024381;28;20030;-76
2022/05/30 00:31:56;;;;;;;3.55;1.50;;;;;;;8.59;81.24;100099.94;5023337;28;20475;-77
2022/05/30 00:34:23;;;;;;;4.70;1.95;;;;;;;8.53;81.75;100103.47;5025516;28;20112;-76
2022/05/30 00:36:48;;;;;;;4.00;1.48;;;;;;;8.52;82.13;100100.88;5022312;28;20048;-77
2022/05/30 00:39:13;;;;;;;4.47;1.98;;;;;;;8.48;82.05;100100.00;5025173;28;20116;-77
2022/05/30 00:41:39;;;;;;;4.15;1.70;;;;;;;8.47;82.48;100102.66;5023399;28;20080;-76
2022/05/30 00:44:04;;;;;;;4.05;1.92;;;;;;;8.48;82.56;100101.75;5023928;28;20044;-77
2022/05/30 00:46:30;;;;;;;4.45;2.28;;;;;;;8.47;82.88;100095.63;5024273;28;20029;-76
2022/05/30 00:49:03;;;;;;;3.20;1.50;;;;;;;8.47;82.59;100094.78;5021062;28;20072;-77
2022/05/30 00:51:50;;;;;;;3.97;2.15;;;;;;;8.43;83.09;100095.66;5022711;28;20029;-77
2022/05/30 00:54:21;;;;;;;3.95;1.67;;;;;;;8.44;83.00;100094.78;5022586;28;20030;-76
2022/05/30 00:56:50;;;;;;;5.03;2.20;;;;;;;8.39;82.79;100088.63;5022264;28;20396;-76
2022/05/30 00:59:16;;;;;;;2.40;1.50;;;;;;;8.34;82.46;100086.88;5024940;28;20135;-77
2022/05/30 01:01:42;;;;;;;4.70;2.00;;;;;;;8.28;83.15;100089.56;5021872;28;20034;-77
2022/05/30 01:06:55;;;;;;;3.60;1.88;;;;;;;8.21;83.46;100093.06;5020681;28;20033;-77
2022/05/30 01:09:30;;;;;;;4.43;1.98;;;;;;;8.20;84.16;100091.34;5024848;28;20484;-77
2022/05/30 01:11:59;;;;;;;5.03;2.38;;;;;;;8.15;84.12;100090.47;5028654;28;20112;-77
2022/05/30 01:14:28;;;;;;;3.33;1.65;;;;;;;8.12;85.36;100090.47;5024053;28;20075;-77
2022/05/30 01:16:55;;;;;;;3.60;1.80;;;;;;;8.12;85.09;100085.22;5018797;28;20100;-77
2022/05/30 01:20:07;;;;;;;3.60;1.60;;;;;;;8.10;85.00;100087.84;5025119;28;20106;-77
2022/05/30 01:22:54;;;;;;;5.15;1.98;;;;;;;8.09;84.93;100085.22;4998760;28;20471;-77
2022/05/30 01:25:50;;;;;;;4.88;2.00;;;;;;;8.07;85.29;100087.88;5021334;28;20408;-77
2022/05/30 01:28:39;;;;;;;5.63;2.08;;;;;;;8.02;85.27;100092.28;5036342;28;20041;-77
2022/05/30 01:31:05;;;;;;;3.25;2.00;;;;;;;7.99;85.53;100080.88;5021600;28;20385;-77
2022/05/30 01:33:32;;;;;;;3.90;2.20;;;;;;;7.93;85.47;100080.91;5021172;28;20053;-76
2022/05/30 01:35:58;;;;;;;2.88;1.80;;;;;;;7.89;86.25;100078.28;5024232;28;20041;-77
2022/05/30 01:38:24;;;;;;;4.10;2.08;;;;;;;7.86;85.67;100080.94;5019872;28;20171;-77
2022/05/30 01:40:52;;;;;;;5.03;2.47;;;;;;;7.82;85.99;100071.28;5022472;28;20033;-77
2022/05/30 01:43:18;;;;;;;6.82;2.63;;;;;;;7.83;86.37;100075.69;5022539;28;20183;-77
2022/05/30 01:45:48;;;;;;;5.60;2.22;;;;;;;7.84;85.87;100073.91;5022633;28;20508;-77
2022/05/30 01:48:13;;;;;;;3.88;2.08;;;;;;;7.82;85.42;100071.28;5015991;28;20028;-77
2022/05/30 01:50:39;;;;;;;4.22;2.42;;;;;;;7.79;85.63;100076.56;5036293;28;20057;-77
2022/05/30 01:53:16;;;;;;;3.72;2.30;;;;;;;7.76;85.89;100073.94;5020912;28;20038;-77
2022/05/30 01:56:01;;;;;;;4.45;2.55;;;;;;;7.71;86.16;100067.81;5022826;28;20045;-77
2022/05/30 01:58:27;;;;;;;3.80;2.40;;;;;;;7.68;86.03;100073.06;5020549;28;20203;-77
2022/05/30 02:01:26;;;;;;;3.92;2.53;;;;;;;7.63;86.68;100069.59;5020052;28;20046;-76
2022/05/30 02:03:53;;;;;;;4.38;2.40;;;;;;;7.56;86.31;100073.97;5039252;28;20510;-77
2022/05/30 02:06:23;;;;;;;3.63;1.90;;;;;;;7.56;86.29;100078.34;5023738;28;20497;-76
2022/05/30 02:08:49;;;;;;;5.15;2.20;;;;;;;7.54;85.92;100069.59;5027388;28;20048;-77
2022/05/30 02:11:17;;;;;;;5.57;2.55;;;;;;;7.51;85.96;100074.84;5030758;28;20036;-77
2022/05/30 02:13:44;;;;;;;3.90;2.42;;;;;;;7.42;85.87;100073.97;5019694;28;20038;-77
2022/05/30 02:19:09;;;;;;;3.60;2.50;;;;;;;7.34;86.30;100081.00;5021402;28;20389;-77
2022/05/30 02:21:35;;;;;;;5.68;3.35;;;;;;;7.34;86.49;100078.38;5023641;28;20029;-77
2022/05/30 02:24:06;;;;;;;5.95;2.40;;;;;;;7.33;87.10;100081.84;5027546;28;20061;-76
2022/05/30 02:26:34;;;;;;;4.05;2.28;;;;;;;7.24;86.40;100077.47;5021757;28;20391;-76
2022/05/30 02:29:00;;;;;;;5.20;2.33;;;;;;;7.20;86.79;100083.63;5022558;28;20424;-77
2022/05/30 02:31:26;;;;;;;5.15;2.63;;;;;;;7.18;85.75;100082.75;5025454;28;20026;-77
2022/05/30 02:36:41;;;;;;;6.18;2.88;;;;;;;7.15;86.02;100087.09;5023506;28;20037;-77
2022/05/30 02:39:13;;;;;;;5.15;2.55;;;;;;;7.17;86.61;100080.09;5022930;28;20112;-77
2022/05/30 02:42:01;;;;;;;5.15;2.50;;;;;;;7.20;87.22;100086.25;5020651;28;20034;-76
2022/05/30 02:44:30;;;;;;;5.25;2.53;;;;;;;7.21;86.38;100087.13;5020620;28;20391;-77
2022/05/30 02:47:00;;;;;;;4.45;2.58;;;;;;;7.22;86.11;100088.84;5017949;28;20030;-76
2022/05/30 02:49:27;;;;;;;4.35;2.70;;;;;;;7.25;86.20;100079.22;5022507;28;20044;-77
2022/05/30 02:51:54;;;;;;;6.30;3.20;;;;;;;7.30;85.92;100084.47;5015877;28;20060;-77
2022/05/30 02:54:20;;;;;;;5.93;3.17;;;;;;;7.34;86.55;100086.25;5018086;28;20064;-77
2022/05/30 02:57:06;;;;;;;4.57;3.00;;;;;;;7.35;87.24;100085.34;5019304;28;20042;-77
2022/05/30 02:59:33;;;;;;;7.07;3.33;;;;;;;7.42;87.49;100092.34;5020216;28;20033;-77
2022/05/30 03:02:04;;;;;;;5.13;3.20;;;;;;;7.51;87.81;100095.84;5018005;28;20044;-77
2022/05/30 03:04:29;;;;;;;4.03;2.45;;;;;;;7.57;87.16;100090.59;5022122;28;20037;-77
2022/05/30 03:06:55;;;;;;;4.07;2.50;;;;;;;7.60;85.98;100099.34;5015774;28;20164;-77
2022/05/30 03:09:20;;;;;;;4.78;2.60;;;;;;;7.59;85.95;100100.22;5036223;28;20443;-77
2022/05/30 03:12:06;;;;;;;4.40;2.40;;;;;;;7.63;85.53;100090.59;5018083;28;20033;-77
2022/05/30 03:14:32;;;;;;;4.85;3.15;;;;;;;7.67;85.39;100092.31;5020974;28;20030;-76
2022/05/30 03:16:57;;;;;;;3.58;2.22;;;;;;;7.68;85.47;100088.84;5020773;28;20433;-76
2022/05/30 03:19:23;;;;;;;4.05;2.40;;;;;;;7.71;85.07;100099.34;5023523;28;20498;-77
2022/05/30 03:21:48;;;;;;;4.57;2.92;;;;;;;7.75;85.49;100092.31;5020327;28;20084;-77
2022/05/30 03:24:14;;;;;;;5.53;2.47;;;;;;;7.81;85.86;100092.31;5003487;28;20030;-77
2022/05/30 03:26:39;;;;;;;4.05;2.30;;;;;;;7.86;85.88;100098.44;5022121;28;20022;-77
2022/05/30 03:29:05;;;;;;;4.95;2.63;;;;;;;7.86;85.62;100104.56;5020756;28;20040;-77
2022/05/30 03:31:32;;;;;;;4.80;2.50;;;;;;;7.85;86.02;100108.06;5033323;28;20041;-76
2022/05/30 03:33:58;;;;;;;3.08;2.05;;;;;;;7.87;86.11;100110.69;5022125;28;20116;-77
2022/05/30 03:36:29;;;;;;;5.07;2.45;;;;;;;7.86;85.98;100104.56;5018442;28;20029;-77
2022/05/30 03:39:13;;;;;;;4.30;2.70;;;;;;;7.88;85.89;100108.03;5022706;28;20107;-77
2022/05/30 03:41:57;;;;;;;3.50;2.22;;;;;;;7.85;85.91;100101.94;5020958;28;20041;-77
2022/05/30 03:44:58;;;;;;;4.40;2.60;;;;;;;7.80;85.66;100109.81;5025534;28;20095;-77
2022/05/30 03:47:23;;;;;;;4.30;3.03;;;;;;;7.76;85.08;100112.47;5021935;28;20045;-77
2022/05/30 03:49:59;;;;;;;5.00;2.45;;;;;;;7.74;85.65;100117.72;5004698;28;20671;-77
2022/05/30 03:52:25;;;;;;;4.28;2.65;;;;;;;7.70;86.35;100113.31;5028072;28;20025;-77
2022/05/30 03:54:52;;;;;;;5.50;3.38;;;;;;;7.73;86.62;100115.97;5024241;28;20030;-76
2022/05/30 03:57:18;;;;;;;4.75;2.58;;;;;;;7.78;86.88;100116.84;5020421;28;20033;-76
2022/05/30 03:59:43;;;;;;;4.88;2.40;;;;;;;7.84;86.82;100116.81;5016382;28;20037;-77
2022/05/30 04:02:08;;;;;;;5.63;2.80;;;;;;;7.92;86.47;100116.81;5018985;28;20072;-77
2022/05/30 04:04:34;;;;;;;5.25;2.97;;;;;;;7.93;86.81;100109.81;5023629;28;20033;-76
2022/05/30 04:07:00;;;;;;;4.63;2.58;;;;;;;7.99;86.56;100122.91;5029359;28;20057;-77
2022/05/30 04:09:26;;;;;;;5.55;2.88;;;;;;;8.03;86.04;100127.31;5015027;28;20107;-77
2022/05/30 04:12:04;;;;;;;5.75;3.13;;;;;;;8.06;86.67;100127.28;5019414;28;20396;-77
2022/05/30 04:15:00;;;;;;;4.70;3.30;;;;;;;8.14;86.65;100120.25;5025957;28;20050;-77
2022/05/30 04:17:32;;;;;;;7.15;3.15;;;;;;;8.19;86.11;100123.75;5008135;28;20436;-77
2022/05/30 04:19:59;;;;;;;6.25;3.40;;;;;;;8.25;86.06;100128.09;5020485;28;20033;-77
2022/05/30 04:22:24;;;;;;;4.90;2.95;;;;;;;8.37;86.09;100124.56;5025178;28;20038;-76
2022/05/30 04:25:07;;;;;;;8.15;3.63;;;;;;;8.41;86.00;100128.97;5024875;28;20041;-77
2022/05/30 04:27:33;;;;;;;4.75;3.08;;;;;;;8.53;86.00;100123.66;5020319;28;20096;-76
2022/05/30 04:29:58;;;;;;;4.88;2.63;;;;;;;8.72;85.64;100127.97;5025245;28;20041;-77
2022/05/30 04:32:29;;;;;;;6.18;3.25;;;;;;;8.87;84.72;100128.75;5021145;28;20036;-77
2022/05/30 04:34:55;;;;;;;5.93;3.22;;;;;;;9.04;84.70;100128.63;5024110;28;20083;-77
2022/05/30 04:37:22;;;;;;;8.20;3.65;;;;;;;9.28;84.73;100133.75;5021571;28;20034;-79
2022/05/30 04:39:52;;;;;;;5.45;3.33;;;;;;;9.54;83.21;100132.69;5012549;28;20454;-78
2022/05/30 04:42:40;;;;;;;5.50;3.05;;;;;;;9.73;82.51;100130.75;5047593;28;20041;-78
2022/05/30 04:45:24;;;;;;;5.53;3.30;;;;;;;9.85;81.14;100125.34;5029217;28;20056;-78
2022/05/30 04:48:03;;;;;;;5.85;3.55;;;;;;;9.92;80.70;100129.69;5024160;28;20041;-77
2022/05/30 04:50:29;;;;;;;6.05;3.83;;;;;;;9.96;80.44;100120.88;5024530;28;20395;-78
2022/05/30 04:52:54;;;;;;;6.15;3.47;;;;;;;9.97;80.46;100127.00;5023478;28;20045;-78
2022/05/30 04:55:54;;;;;;;6.63;3.75;;;;;;;9.95;80.38;100129.66;5026352;28;20036;-78
2022/05/30 04:58:29;;;;;;;7.25;4.70;;;;;;;9.93;80.91;100126.19;5027624;28;20076;-78
2022/05/30 05:01:09;;;;;;;7.22;4.70;;;;;;;9.86;80.98;100130.63;5028153;28;20133;-78
2022/05/30 05:03:37;;;;;;;7.75;4.88;;;;;;;9.85;80.63;100133.25;5042214;28;20043;-78
2022/05/30 05:06:13;;;;;;;8.07;5.20;;;;;;;9.83;80.80;100140.34;5027210;28;20038;-78
2022/05/30 05:08:51;;;;;;;9.52;5.10;;;;;;;9.80;81.39;100137.75;5042474;28;20065;-78
2022/05/30 05:11:37;;;;;;;6.70;5.43;;;;;;;9.74;81.26;100140.41;5023226;28;20124;-78
2022/05/30 05:14:21;;;;;;;6.82;5.25;;;;;;;9.75;80.84;100140.41;5026718;28;20064;-77
2022/05/30 05:17:07;;;;;;;10.07;6.65;;;;;;;9.71;80.91;100140.44;5027929;28;20086;-78
2022/05/30 05:19:33;;;;;;;7.82;5.78;;;;;;;9.75;81.24;100144.81;5008585;28;20048;-77
2022/05/30 05:21:59;;;;;;;8.27;5.72;;;;;;;9.84;81.52;100142.06;5029839;28;20029;-78
2022/05/30 05:24:25;;;;;;;8.02;5.07;;;;;;;9.96;81.10;100136.69;5009564;28;20073;-77
2022/05/30 05:27:09;;;;;;;7.78;5.30;;;;;;;10.08;80.01;100140.94;5022914;28;20041;-77
2022/05/30 05:29:35;;;;;;;8.77;5.85;;;;;;;10.20;79.92;100139.97;5026657;28;20040;-78
2022/05/30 05:32:04;;;;;;;8.32;5.78;;;;;;;10.37;79.99;100135.38;5031676;28;20030;-77
2022/05/30 05:34:29;;;;;;;7.15;5.32;;;;;;;10.56;79.75;100143.97;5020686;28;20398;-78
2022/05/30 05:36:54;;;;;;;9.25;5.85;;;;;;;10.68;79.48;100137.66;5022995;28;20048;-78
2022/05/30 05:39:20;;;;;;;8.95;6.40;;;;;;;10.71;79.64;100143.75;5025607;28;20407;-77
2022/05/30 05:41:56;;;;;;;9.52;6.10;;;;;;;10.79;78.60;100140.16;5025062;28;20034;-78
2022/05/30 05:44:22;;;;;;;8.52;6.60;;;;;;;10.74;79.49;100142.84;5021496;28;20040;-77
2022/05/30 05:46:48;;;;;;;10.35;6.88;;;;;;;10.66;79.73;100144.72;5024721;28;20084;-78
2022/05/30 05:49:13;;;;;;;17.30;8.07;;;;;;;10.58;80.11;100143.94;5020740;28;20500;-78
2022/05/30 05:51:40;;;;;;;8.32;6.22;;;;;;;10.65;80.37;100148.25;5024366;28;20061;-78
2022/05/30 05:54:09;;;;;;;11.05;7.70;;;;;;;10.65;80.56;100150.91;5012881;28;20061;-77
2022/05/30 05:56:36;;;;;;;10.50;7.28;;;;;;;10.72;80.13;100148.16;5022059;28;20111;-78
2022/05/30 05:59:05;;;;;;;9.77;6.47;;;;;;;10.78;80.56;100152.47;5011388;28;20052;-78
2022/05/30 06:01:33;;;;;;;9.48;7.85;;;;;;;10.93;80.38;100154.94;5035325;28;20474;-77
2022/05/30 06:04:03;;;;;;;12.18;7.82;;;;;;;11.11;79.72;100153.81;5013992;28;20160;-78
2022/05/30 06:06:58;;;;;;;11.45;8.38;;;;;;;11.37;79.23;100147.22;5024247;28;20112;-78
2022/05/30 06:09:27;;;;;;;10.35;7.45;;;;;;;11.52;77.60;100139.06;5020860;28;20041;-78
2022/05/30 06:11:59;;;;;;;10.32;7.60;;;;;;;11.79;77.53;100139.53;5021504;28;20029;-78
2022/05/30 06:14:25;;;;;;;9.27;7.57;;;;;;;11.99;76.02;100144.47;5019251;28;20124;-78
2022/05/30 06:16:52;;;;;;;10.68;7.28;;;;;;;12.11;75.58;100144.25;5024225;28;20187;-77
2022/05/30 06:19:20;;;;;;;10.73;6.63;;;;;;;12.25;74.74;100141.34;5016745;28;20507;-77
2022/05/30 06:21:46;;;;;;;12.38;7.50;;;;;;;12.31;74.23;100146.50;5012718;28;20037;-77
2022/05/30 06:24:13;;;;;;;8.95;6.90;;;;;;;12.52;73.66;100139.91;5013396;28;20033;-77
2022/05/30 06:26:58;;;;;;;9.82;6.35;;;;;;;12.92;72.48;100139.09;5020752;28;20033;-78
2022/05/30 06:29:33;;;;;;;10.30;6.30;;;;;;;13.34;71.26;100136.41;5011559;28;20040;-78
2022/05/30 06:32:00;;;;;;;8.98;5.70;;;;;;;13.68;70.17;100135.59;5027391;28;20056;-78
2022/05/30 06:34:27;;;;;;;10.48;5.82;;;;;;;13.80;68.44;100130.81;5004837;28;20033;-78
2022/05/30 06:36:52;;;;;;;9.20;5.80;;;;;;;13.60;67.46;100133.13;5005188;28;20032;-78
2022/05/30 06:39:18;;;;;;;8.82;5.95;;;;;;;13.53;67.98;100137.69;5006345;28;20040;-77
2022/05/30 06:41:52;;;;;;;9.30;5.63;;;;;;;13.43;68.06;100125.56;5023507;28;20045;-78
2022/05/30 06:44:17;;;;;;;7.50;6.20;;;;;;;13.58;68.81;100138.44;5021670;28;20097;-77
2022/05/30 06:47:07;;;;;;;8.15;5.75;;;;;;;13.61;65.92;100133.97;5023272;28;20624;-77
2022/05/30 06:49:51;;;;;;;8.65;5.75;;;;;;;13.49;66.68;100130.75;5023753;28;20167;-78
2022/05/30 06:52:22;;;;;;;9.18;6.97;;;;;;;13.42;67.82;100147.69;5006620;28;20033;-78
2022/05/30 06:54:48;;;;;;;10.27;6.25;;;;;;;13.40;67.84;100149.50;5001518;28;20480;-77
2022/05/30 06:59:57;;;;;;;6.95;5.20;;;;;;;13.49;66.08;100144.00;5021412;28;20033;-77
2022/05/30 07:02:23;;;;;;;7.03;5.05;;;;;;;13.89;64.42;100150.94;5003012;28;20045;-78
2022/05/30 07:05:07;;;;;;;5.70;3.85;;;;;;;14.39;61.54;100145.19;5035362;28;20041;-78
2022/05/30 07:07:55;;;;;;;6.10;3.88;;;;;;;14.86;60.59;100141.19;5020197;28;20128;-78
2022/05/30 07:10:45;;;;;;;7.53;5.18;;;;;;;14.93;59.81;100135.66;5027634;28;20029;-78
2022/05/30 07:13:15;;;;;;;6.88;4.60;;;;;;;14.73;59.76;100153.09;5019275;28;20033;-77
2022/05/30 07:15:41;;;;;;;8.27;5.30;;;;;;;14.37;61.60;100147.88;5017567;28;20166;-78
2022/05/30 07:18:14;;;;;;;7.88;4.65;;;;;;;14.31;62.55;100148.06;5027739;28;20026;-78
2022/05/30 07:20:40;;;;;;;8.73;6.18;;;;;;;14.09;63.22;100152.19;5024717;28;20033;-78
2022/05/30 07:23:41;;;;;;;10.05;6.10;;;;;;;13.87;64.16;100157.19;5035709;28;20063;-78
2022/05/30 07:26:26;;;;;;;9.23;5.70;;;;;;;13.98;63.83;100150.69;5019851;28;20072;-77
2022/05/30 07:29:07;;;;;;;7.53;5.07;;;;;;;14.27;61.50;100148.16;5023542;28;20112;-77
2022/05/30 07:31:50;;;;;;;6.63;5.20;;;;;;;14.74;57.98;100152.16;5025653;28;20053;-77
2022/05/30 07:34:37;;;;;;;5.80;3.40;;;;;;;15.34;56.11;100153.88;5020644;28;20516;-77
2022/05/30 07:37:17;;;;;;;7.13;3.72;;;;;;;15.82;54.30;100133.72;5018782;28;20491;-77
2022/05/30 07:39:55;;;;;;;5.50;3.58;;;;;;;16.28;53.44;100142.75;5028952;28;20041;-78
2022/05/30 07:42:31;;;;;;;6.50;4.40;;;;;;;16.62;52.85;100145.06;5023994;28;20040;-77
2022/05/30 07:45:11;;;;;;;6.18;4.00;;;;;;;16.47;52.83;100148.28;5004669;28;20112;-78
2022/05/30 07:47:53;;;;;;;7.05;5.55;;;;;;;16.28;52.61;100147.22;5040754;28;20072;-78
2022/05/30 07:50:46;;;;;;;7.07;5.28;;;;;;;15.92;53.71;100156.44;5012656;28;20064;-77
2022/05/30 07:53:31;;;;;;;10.43;5.68;;;;;;;15.70;55.51;100144.78;5023931;28;20107;-76
2022/05/30 07:56:06;;;;;;;7.68;5.63;;;;;;;15.82;55.39;100157.66;5012777;28;20100;-77
2022/05/30 07:58:32;;;;;;;6.88;5.68;;;;;;;15.85;53.27;100156.69;5023884;28;20114;-77
2022/05/30 08:00:58;;;;;;;7.47;5.57;;;;;;;16.19;53.21;100143.97;5025149;28;20499;-77
2022/05/30 08:03:26;;;;;;;6.38;4.97;;;;;;;16.23;52.92;100155.38;5011582;28;20025;-77
2022/05/30 08:06:15;;;;;;;6.28;5.07;;;;;;;16.20;52.17;100166.13;5028089;28;20088;-77
2022/05/30 08:09:00;;;;;;;8.90;6.47;;;;;;;16.35;52.21;100164.72;5024899;28;20480;-77
2022/05/30 08:11:26;;;;;;;8.57;5.30;;;;;;;16.12;52.93;100157.56;5025871;28;20062;-77
2022/05/30 08:14:01;;;;;;;9.65;6.32;;;;;;;15.89;53.17;100161.84;5028545;28;20399;-77
2022/05/30 08:16:27;;;;;;;12.60;6.10;;;;;;;15.94;53.14;100167.03;5024796;28;20109;-78
2022/05/30 08:18:52;;;;;;;6.20;5.20;;;;;;;16.03;53.44;100165.84;5010586;28;20034;-77
2022/05/30 08:21:19;;;;;;;8.38;5.40;;;;;;;16.17;52.69;100161.78;5006548;28;20458;-76
2022/05/30 08:23:47;;;;;;;8.40;5.82;;;;;;;16.43;52.30;100160.00;5009639;28;20041;-77
2022/05/30 08:26:15;;;;;;;6.75;5.95;;;;;;;16.41;52.23;100164.50;5031025;28;20476;-77
2022/05/30 08:29:03;;;;;;;7.65;5.80;;;;;;;16.46;52.07;100162.53;5022824;28;20732;-77
2022/05/30 08:31:28;;;;;;;8.02;5.82;;;;;;;16.29;52.03;100164.94;5024459;28;20041;-78
2022/05/30 08:34:12;;;;;;;8.65;5.70;;;;;;;16.26;52.90;100170.38;5026247;28;20056;-78
2022/05/30 08:36:44;;;;;;;7.40;5.35;;;;;;;16.15;51.83;100165.44;5019831;28;20409;-78
2022/05/30 08:41:54;;;;;;;5.75;4.70;;;;;;;16.74;49.85;100170.41;5020702;28;20026;-78
2022/05/30 08:44:49;;;;;;;7.28;5.60;;;;;;;16.76;49.98;100173.84;5028360;28;20042;-77
2022/05/30 08:47:48;;;;;;;9.77;4.95;;;;;;;16.68;48.61;100169.75;5021357;28;21194;-78
2022/05/30 08:50:51;;;;;;;5.80;4.10;;;;;;;16.60;47.84;100176.22;5016636;28;20053;-77
2022/05/30 08:53:48;;;;;;;6.80;5.03;;;;;;;16.50;49.63;100177.47;5024024;28;20025;-77
2022/05/30 08:56:25;;;;;;;6.43;4.78;;;;;;;16.54;49.72;100170.25;5024685;28;20399;-78
2022/05/30 08:59:37;;;;;;;5.88;4.60;;;;;;;16.83;49.63;100166.53;5020829;28;20049;-77
2022/05/30 09:02:11;;;;;;;6.45;4.63;;;;;;;16.87;49.61;100168.16;5006213;28;20060;-78
2022/05/30 09:04:50;;;;;;;6.88;4.65;;;;;;;17.23;48.71;100178.34;5020520;28;20040;-77
2022/05/30 09:07:25;;;;;;;7.05;4.75;;;;;;;17.14;48.79;100186.72;5020575;28;20030;-77
2022/05/30 09:10:13;;;;;;;6.20;4.43;;;;;;;17.25;47.96;100179.16;5028458;28;20443;-77
2022/05/30 09:12:46;;;;;;;6.63;4.55;;;;;;;17.26;47.57;100179.06;5011464;28;20128;-77
2022/05/30 09:15:40;;;;;;;8.60;4.22;;;;;;;16.74;49.19;100186.38;5024458;28;20467;-77
2022/05/30 09:18:11;;;;;;;4.72;3.88;;;;;;;16.76;47.96;100173.84;5021886;28;20026;-77
2022/05/30 09:20:38;;;;;;;6.85;4.50;;;;;;;17.02;48.45;100177.38;5021589;28;20037;-77
2022/05/30 09:23:07;;;;;;;7.10;4.30;;;;;;;17.27;48.90;100171.97;5019884;28;20065;-77
2022/05/30 09:25:55;;;;;;;7.18;4.53;;;;;;;17.64;47.32;100175.81;5019958;28;20112;-77
2022/05/30 09:28:49;;;;;;;4.15;2.72;;;;;;;17.71;45.48;100170.16;5026612;28;20060;-77
2022/05/30 09:31:56;;;;;;;4.75;3.38;;;;;;;17.35;45.82;100169.84;5025528;28;20048;-77
2022/05/30 09:34:35;;;;;;;5.43;3.90;;;;;;;17.11;45.39;100178.78;5025637;28;20455;-78
2022/05/30 09:37:33;;;;;;;12.90;4.38;;;;;;;17.15;45.35;100164.44;5022403;28;20523;-78
2022/05/30 09:40:20;;;;;;;7.68;3.95;;;;;;;17.31;47.45;100174.41;5024148;28;20053;-77
2022/05/30 09:43:22;;;;;;;5.03;3.85;;;;;;;17.13;48.36;100180.47;5019661;28;20029;-78
2022/05/30 09:45:48;;;;;;;7.35;4.40;;;;;;;16.50;49.01;100174.81;5040609;28;20057;-78
2022/05/30 09:49:05;;;;;;;6.47;4.38;;;;;;;16.02;51.45;100182.75;5051128;28;20095;-78
2022/05/30 09:51:33;;;;;;;6.22;4.15;;;;;;;15.96;52.26;100186.50;5027041;28;20513;-77
2022/05/30 09:54:09;;;;;;;5.80;3.38;;;;;;;15.78;52.71;100191.50;5015305;28;20029;-78
2022/05/30 09:56:41;;;;;;;6.97;3.55;;;;;;;15.46;53.28;100194.31;5011884;28;20408;-78
2022/05/30 09:59:29;;;;;;;5.65;2.92;;;;;;;15.12;53.84;100205.97;5012332;28;20055;-77
2022/05/30 10:02:27;;;;;;;5.60;3.13;;;;;;;15.00;56.63;100217.81;5011516;28;20021;-78
2022/05/30 10:04:57;;;;;;;4.90;3.20;;;;;;;14.95;55.88;100203.81;5013936;28;20029;-78
2022/05/30 10:07:24;;;;;;;3.88;2.47;;;;;;;14.64;53.86;100209.97;5010964;28;20103;-79
2022/05/30 10:09:57;;;;;;;6.78;2.40;;;;;;;14.64;55.75;100217.94;5006481;28;20048;-78
2022/05/30 10:12:31;;;;;;;6.43;2.88;;;;;;;14.76;57.02;100218.53;5024334;28;20108;-78
2022/05/30 10:14:57;;;;;;;7.68;3.08;;;;;;;14.99;55.77;100223.19;5020892;28;20522;-79
2022/05/30 10:17:36;;;;;;;3.88;2.40;;;;;;;15.22;53.97;100204.78;5020160;28;20054;-78
2022/05/30 10:20:12;;;;;;;4.10;2.08;;;;;;;15.63;52.91;100201.72;5010655;28;20030;-78
2022/05/30 10:30:37;;;;;;;3.10;1.50;;;;;;;15.98;47.90;100214.78;5024720;28;20049;-78
2022/05/30 10:33:49;;;;;;;3.33;1.90;;;;;;;16.13;47.38;100202.72;5022458;28;20519;-78
2022/05/30 10:36:30;;;;;;;2.95;1.70;;;;;;;16.24;48.58;100215.69;5038084;28;20033;-79
2022/05/30 10:39:34;;;;;;;2.90;1.60;;;;;;;16.34;46.55;100210.91;5038110;28;20507;-77
2022/05/30 10:42:15;;;;;;;3.50;1.80;;;;;;;16.65;46.24;100202.69;5030222;28;20049;-78
2022/05/30 10:44:49;;;;;;;3.63;1.80;;;;;;;16.75;46.62;100206.75;5038028;28;20508;-80
2022/05/30 10:47:28;;;;;;;3.58;1.80;;;;;;;16.77;45.27;100201.41;5020233;28;20468;-79
2022/05/30 10:50:23;;;;;;;2.55;1.42;;;;;;;17.00;45.49;100205.88;5022367;28;20021;-78
2022/05/30 10:53:02;;;;;;;3.80;2.05;;;;;;;16.82;46.55;100200.31;5017537;28;20055;-78
2022/05/30 10:56:09;;;;;;;4.03;2.15;;;;;;;17.02;45.97;100206.69;5026817;28;20045;-79
2022/05/30 10:58:44;;;;;;;4.00;2.22;;;;;;;17.03;46.46;100211.13;5024502;28;20042;-80
2022/05/30 11:01:37;;;;;;;3.63;1.95;;;;;;;17.28;44.29;100211.88;5020017;28;20033;-80
2022/05/30 11:04:08;;;;;;;3.08;2.00;;;;;;;17.02;47.15;100204.88;5024526;28;20033;-80
2022/05/30 11:06:37;;;;;;;3.60;2.17;;;;;;;17.06;45.84;100214.53;5021604;28;20038;-79
2022/05/30 11:09:30;;;;;;;3.25;1.92;;;;;;;17.36;45.58;100206.25;5020837;28;20065;-80
2022/05/30 11:12:02;;;;;;;2.72;1.50;;;;;;;17.63;42.85;100206.97;5021279;28;20033;-80
2022/05/30 11:14:41;;;;;;;4.03;2.03;;;;;;;17.41;42.73;100204.28;5021014;28;20484;-80
2022/05/30 11:18:08;;;;;;;2.40;1.40;;;;;;;17.01;43.16;100221.81;5024095;28;20518;-80
2022/05/30 11:21:22;;;;;;;3.53;1.90;;;;;;;16.27;46.08;100209.38;5020063;28;20048;-80
2022/05/30 11:23:49;;;;;;;3.97;2.03;;;;;;;16.39;45.54;100209.81;5019975;28;20041;-79
2022/05/30 11:26:46;;;;;;;3.00;1.90;;;;;;;16.63;43.93;100207.19;5019726;28;20381;-80
2022/05/30 11:29:55;;;;;;;3.58;1.65;;;;;;;16.77;44.50;100209.38;5033557;28;20087;-80
2022/05/30 11:32:45;;;;;;;2.55;1.45;;;;;;;16.98;45.11;100203.28;5030374;28;20087;-78
2022/05/30 11:35:34;;;;;;;2.75;1.70;;;;;;;17.46;43.61;100199.63;5030625;28;20399;-79
2022/05/30 11:38:02;;;;;;;2.88;1.50;;;;;;;17.77;43.54;100208.22;5030061;28;20050;-80
2022/05/30 11:40:37;;;;;;;2.65;1.30;;;;;;;17.93;43.29;100196.84;5033230;28;20492;-80
2022/05/30 11:43:31;;;;;;;3.15;1.52;;;;;;;17.74;43.91;100209.22;5025391;28;20057;-80
2022/05/30 11:46:07;;;;;;;4.05;1.80;;;;;;;18.45;42.70;100200.91;5030072;28;20025;-80
2022/05/30 11:48:46;;;;;;;3.45;1.90;;;;;;;18.77;42.03;100184.31;5028216;28;20400;-80
2022/05/30 11:51:33;;;;;;;4.13;1.70;;;;;;;19.05;42.77;100188.41;5027998;28;20493;-80
2022/05/30 11:54:29;;;;;;;3.85;1.63;;;;;;;19.78;40.10;100192.06;5031507;28;20482;-80
2022/05/30 11:57:16;;;;;;;4.22;1.55;;;;;;;20.07;39.52;100187.91;5033672;28;20037;-80
2022/05/30 11:59:47;;;;;;;3.25;1.80;;;;;;;20.52;36.57;100188.28;5033183;28;20033;-79
2022/05/30 12:02:19;;;;;;;3.13;1.47;;;;;;;20.43;35.73;100184.25;5032595;28;20435;-80
2022/05/30 12:04:44;;;;;;;;;;;;;;;20.54;35.63;100186.41;5034459;28;20041;-80
2022/05/30 12:07:31;;;;;;;3.95;1.85;;;;;;;21.22;34.67;100188.97;5033519;28;19928;-80
2022/05/30 12:10:05;;;;;;;4.10;2.00;;;;;;;21.24;36.22;100187.06;5036521;28;20029;-81
2022/05/30 12:12:40;;;;;;;3.28;1.75;;;;;;;20.42;36.50;100187.03;5034179;28;20037;-80
2022/05/30 12:15:17;;;;;;;3.08;1.45;;;;;;;19.26;38.65;100198.09;5025773;28;20044;-80
2022/05/30 12:24:11;;;;;;;3.15;1.48;;;;;;;22.25;33.60;100181.28;5030988;28;20037;-81
2022/05/30 12:26:45;;;;;;;4.00;1.63;;;;;;;21.98;33.07;100185.56;5023057;28;20037;-80
2022/05/30 12:29:43;;;;;;;3.20;1.75;;;;;;;21.76;32.55;100176.06;5029647;28;20037;-80
2022/05/30 12:32:16;;;;;;;5.13;2.72;;;;;;;20.91;34.23;100171.91;5031857;28;20109;-80
2022/05/30 12:35:33;;;;;;;3.38;1.75;;;;;;;20.75;33.89;100176.34;5044739;28;20064;-80